Montevideo, MN

11:49 PM CST on November 20, 2019 (GMT -0600)
Montevideo-Chippewa County

Weather History for KMVE - October, 2019

Change the Weather History Date:

Sunday, October 20, 2019

  Actual Average Record
Temperature  
Mean Temperature 48 °F -  
Max Temperature 62 °F 59 °F 85 °F (1978)
Min Temperature 35 °F 35 °F 18 °F (1960)
Degree Days  
Heating Degree Days 16    
Moisture  
Dew Point 34 °F    
Average Humidity 57    
Maximum Humidity 81    
Minimum Humidity 32    
Precipitation  
Precipitation 0.00 in - - ()
Sea Level Pressure  
Sea Level Pressure 29.74 in    
Wind  
Wind Speed 5 mph ()    
Max Wind Speed 18 mph    
Max Gust Speed 26 mph    
Visibility 9.9 miles    
Events Rain    
Averages and records for this station are not official NWS values.
T = Trace of Precipitation, MM = Missing Value Source: Averaged Metar Reports

Daily Weather History Graph

Daily Weather History Graph

Search for Another Location

Airport or City:

Astronomy

Oct. 20, 2019 Rise Set
Actual Time 7:44 AM CDT 6:29 PM CDT
Civil Twilight 7:14 AM CDT 6:59 PM CDT
Nautical Twilight 6:40 AM CDT 7:33 PM CDT
Astronomical Twilight 6:06 AM CDT 8:07 PM CDT
Moon 11:29 PM CDT (10/20) 2:24 PM CDT (10/20)
Length of Visible Light 11h 44m
Length of Day
10h 44m
Waning Gibbous, 59% of the Moon is Illuminated
Oct 20
Waning Gibbous
Oct 21
Last Quarter
Oct 27
New
Nov 4
First Quarter
Nov 12
Full

Hourly Weather History & Observations

Time (CDT) Temp. Windchill Dew Point Humidity Pressure Visibility Wind Dir Wind Speed Gust Speed Precip Events Conditions
12:15 AM 42.8 °F 41.1 °F 32.0 °F 66% 29.74 in 10.0 mi WSW 3.5 mph - N/A   Clear
12:35 AM 41.0 °F 39.0 °F 32.0 °F 70% 29.73 in 10.0 mi West 3.5 mph - N/A   Clear
12:36 AM 42.8 °F 41.1 °F 32.0 °F 66% 29.73 in 10.0 mi WSW 3.5 mph - N/A   Clear
12:58 AM 41.0 °F 39.0 °F 32.0 °F 70% 29.73 in 10.0 mi WSW 3.5 mph - N/A   Clear
1:15 AM 41.0 °F - 32.0 °F 70% 29.72 in 10.0 mi Calm Calm - N/A   Clear
1:35 AM 41.0 °F 39.0 °F 32.0 °F 70% 29.73 in 10.0 mi SW 3.5 mph - N/A   Clear
1:36 AM 39.2 °F 37.0 °F 32.0 °F 75% 29.73 in 10.0 mi SW 3.5 mph - N/A   Clear
1:55 AM 41.0 °F 39.0 °F 32.0 °F 70% 29.73 in 10.0 mi SW 3.5 mph - N/A   Clear
2:19 AM 39.2 °F 37.0 °F 32.0 °F 75% 29.74 in 10.0 mi SW 3.5 mph - N/A   Clear
2:37 AM 39.2 °F 37.0 °F 32.0 °F 75% 29.74 in 10.0 mi SW 3.5 mph - N/A   Clear
2:56 AM 39.2 °F 37.0 °F 30.2 °F 70% 29.74 in 10.0 mi SW 3.5 mph - N/A   Clear
3:15 AM 39.2 °F 37.0 °F 32.0 °F 75% 29.74 in 10.0 mi SW 3.5 mph - N/A   Clear
3:16 AM 39.2 °F 37.0 °F 32.0 °F 75% 29.74 in 10.0 mi SW 3.5 mph - N/A   Clear
3:35 AM 37.4 °F - 30.2 °F 75% 29.75 in 10.0 mi Calm Calm - N/A   Clear
3:57 AM 35.6 °F - 30.2 °F 81% 29.75 in 10.0 mi Calm Calm - N/A   Clear
4:16 AM 39.2 °F - 32.0 °F 75% 29.75 in 10.0 mi Calm Calm - N/A   Clear
4:35 AM 39.2 °F 37.0 °F 30.2 °F 70% 29.75 in 10.0 mi SW 3.5 mph - N/A   Clear
4:36 AM 39.2 °F 37.0 °F 32.0 °F 75% 29.75 in 10.0 mi SW 3.5 mph - N/A   Clear
4:55 AM 39.2 °F 37.0 °F 32.0 °F 75% 29.76 in 10.0 mi SW 3.5 mph - N/A   Clear
4:56 AM 39.2 °F 37.0 °F 32.0 °F 75% 29.76 in 10.0 mi SW 3.5 mph - N/A   Clear
5:19 AM 39.2 °F - 30.2 °F 70% 29.76 in 10.0 mi Calm Calm - N/A   Clear
5:36 AM 35.6 °F - 30.2 °F 81% 29.76 in 10.0 mi Calm Calm - N/A   Clear
5:55 AM 37.4 °F 34.9 °F 30.2 °F 75% 29.76 in 10.0 mi South 3.5 mph - N/A   Clear
5:56 AM 37.4 °F 34.9 °F 30.2 °F 75% 29.76 in 10.0 mi South 3.5 mph - N/A   Clear
6:15 AM 37.4 °F 34.9 °F 32.0 °F 81% 29.76 in 10.0 mi South 3.5 mph - N/A   Clear
6:16 AM 37.4 °F 34.9 °F 32.0 °F 81% 29.76 in 10.0 mi South 3.5 mph - N/A   Clear
6:38 AM 37.4 °F 34.9 °F 32.0 °F 81% 29.77 in 10.0 mi South 3.5 mph - N/A   Clear
6:57 AM 39.2 °F 37.0 °F 30.2 °F 70% 29.77 in 10.0 mi South 3.5 mph - N/A   Clear
7:16 AM 37.4 °F 34.9 °F 30.2 °F 75% 29.77 in 10.0 mi South 3.5 mph - N/A   Clear
7:35 AM 35.6 °F 31.7 °F 30.2 °F 81% 29.78 in 10.0 mi South 4.6 mph - N/A   Clear
7:36 AM 35.6 °F 32.8 °F 30.2 °F 81% 29.78 in 10.0 mi South 3.5 mph - N/A   Clear
7:55 AM 35.6 °F 31.7 °F 30.2 °F 81% 29.78 in 10.0 mi South 4.6 mph - N/A   Clear
8:16 AM 35.6 °F 31.7 °F 30.2 °F 81% 29.78 in 10.0 mi SSE 4.6 mph - N/A   Clear
8:55 AM 39.2 °F 35.9 °F 33.8 °F 81% 29.78 in 10.0 mi SSE 4.6 mph - N/A   Clear
8:56 AM 39.2 °F 35.9 °F 33.8 °F 81% 29.78 in 10.0 mi SSE 4.6 mph - N/A   Clear
9:15 AM 42.8 °F 39.3 °F 33.8 °F 70% 29.77 in 10.0 mi SSE 5.8 mph - N/A   Clear
9:19 AM 44.6 °F 41.4 °F 35.6 °F 71% 29.77 in 10.0 mi SSE 5.8 mph - N/A   Clear
9:38 AM 48.2 °F - 35.6 °F 62% 29.77 in 10.0 mi South 6.9 mph - N/A   Clear
10:15 AM 51.8 °F - 35.6 °F 54% 29.78 in 10.0 mi South 5.8 mph - N/A   Clear
10:16 AM 51.8 °F - 35.6 °F 54% 29.78 in 10.0 mi South 4.6 mph - N/A   Clear
10:35 AM 51.8 °F - 35.6 °F 54% 29.79 in 10.0 mi South 5.8 mph - N/A   Clear
10:58 AM 51.8 °F - 35.6 °F 54% 29.79 in 10.0 mi SSW 4.6 mph - N/A   Clear
11:17 AM 53.6 °F - 37.4 °F 54% 29.80 in 10.0 mi SSW 3.5 mph - N/A   Clear
11:36 AM 53.6 °F - 37.4 °F 54% 29.80 in 10.0 mi South 4.6 mph - N/A   Clear
11:55 AM 53.6 °F - 37.4 °F 54% 29.81 in 10.0 mi South 3.5 mph - N/A   Scattered Clouds
11:56 AM 53.6 °F - 37.4 °F 54% 29.81 in 10.0 mi South 3.5 mph - N/A   Scattered Clouds
12:15 PM 53.6 °F - 37.4 °F 54% 29.81 in 10.0 mi Calm Calm - N/A   Scattered Clouds
12:37 PM 55.4 °F - 37.4 °F 51% 29.80 in 10.0 mi Calm Calm - N/A   Scattered Clouds
12:56 PM 55.4 °F - 37.4 °F 51% 29.79 in 10.0 mi Calm Calm - N/A   Clear
1:35 PM 57.2 °F - 39.2 °F 51% 29.77 in 10.0 mi East 4.6 mph - N/A   Clear
1:55 PM 57.2 °F - 39.2 °F 51% 29.77 in 10.0 mi Calm Calm - N/A   Clear
1:59 PM 59.0 °F - 39.2 °F 48% 29.77 in 10.0 mi SSE 4.6 mph - N/A   Clear
2:16 PM 59.0 °F - 39.2 °F 48% 29.77 in 10.0 mi SSE 3.5 mph - N/A   Clear
2:36 PM 59.0 °F - 37.4 °F 45% 29.76 in 10.0 mi SE 4.6 mph - N/A   Scattered Clouds
2:55 PM 60.8 °F - 37.4 °F 42% 29.75 in 3.0 mi SE 6.9 mph - N/A   Haze
2:56 PM 60.8 °F - 37.4 °F 42% 29.75 in 3.0 mi SE 6.9 mph - N/A   Haze
3:15 PM 60.8 °F - 37.4 °F 42% 29.75 in 10.0 mi SSE 6.9 mph - N/A   Clear
3:19 PM 60.8 °F - 37.4 °F 42% 29.75 in 10.0 mi SSE 5.8 mph - N/A   Clear
3:38 PM 60.8 °F - 37.4 °F 42% 29.74 in 10.0 mi SSE 6.9 mph - N/A   Scattered Clouds
3:55 PM 60.8 °F - 37.4 °F 42% 29.74 in 10.0 mi SSE 6.9 mph - N/A   Clear
4:15 PM 60.8 °F - 35.6 °F 39% 29.74 in 10.0 mi SSE 6.9 mph - N/A   Clear
4:16 PM 60.8 °F - 35.6 °F 39% 29.73 in 10.0 mi South 8.1 mph - N/A   Clear
4:35 PM 62.6 °F - 32.0 °F 32% 29.73 in 10.0 mi South 10.4 mph - N/A   Scattered Clouds
4:58 PM 60.8 °F - 33.8 °F 36% 29.73 in 10.0 mi South 8.1 mph - N/A   Clear
5:16 PM 60.8 °F - 33.8 °F 36% 29.73 in 10.0 mi South 11.5 mph - N/A   Scattered Clouds
5:35 PM 60.8 °F - 35.6 °F 39% 29.72 in 10.0 mi SSE 9.2 mph - N/A   Scattered Clouds
5:36 PM 60.8 °F - 35.6 °F 39% 29.72 in 10.0 mi SSE 8.1 mph - N/A   Scattered Clouds
5:55 PM 59.0 °F - 35.6 °F 42% 29.71 in 10.0 mi SSE 10.4 mph - N/A   Clear
5:56 PM 59.0 °F - 35.6 °F 42% 29.71 in 10.0 mi SSE 11.5 mph - N/A   Clear
6:15 PM 57.2 °F - 37.4 °F 48% 29.71 in 10.0 mi SSE 9.2 mph - N/A   Clear
6:20 PM 57.2 °F - 37.4 °F 48% 29.71 in 10.0 mi SSE 8.1 mph - N/A   Clear
6:37 PM 57.2 °F - 37.4 °F 48% 29.70 in 10.0 mi SE 8.1 mph - N/A   Clear
6:55 PM 57.2 °F - 37.4 °F 48% 29.69 in 10.0 mi SE 10.4 mph - N/A   Scattered Clouds
7:15 PM 57.2 °F - 37.4 °F 48% 29.70 in 10.0 mi SE 10.4 mph - N/A   Mostly Cloudy
7:16 PM 57.2 °F - 37.4 °F 48% 29.70 in 10.0 mi SE 9.2 mph - N/A   Mostly Cloudy
7:35 PM 55.4 °F - 37.4 °F 51% 29.70 in 10.0 mi SE 9.2 mph - N/A   Overcast
7:36 PM 55.4 °F - 37.4 °F 51% 29.70 in 10.0 mi SE 9.2 mph - N/A   Overcast
7:58 PM 55.4 °F - 37.4 °F 51% 29.70 in 10.0 mi SSE 5.8 mph - N/A   Mostly Cloudy
8:17 PM 55.4 °F - 37.4 °F 51% 29.69 in 10.0 mi SE 11.5 mph - N/A   Overcast
8:36 PM 55.4 °F - 35.6 °F 47% 29.68 in 10.0 mi SSE 12.7 mph - N/A   Mostly Cloudy
8:55 PM 57.2 °F - 35.6 °F 44% 29.67 in 10.0 mi SSE 16.1 mph 20.7 mph N/A   Mostly Cloudy
8:56 PM 57.2 °F - 35.6 °F 44% 29.67 in 10.0 mi SSE 15.0 mph 20.7 mph N/A   Mostly Cloudy
9:15 PM 57.2 °F - 35.6 °F 44% 29.66 in 10.0 mi SSE 18.4 mph - N/A   Overcast
9:37 PM 57.2 °F - 35.6 °F 44% 29.66 in 10.0 mi SSE 18.4 mph 21.9 mph N/A   Overcast
9:56 PM 57.2 °F - 35.6 °F 44% 29.66 in 10.0 mi SSE 18.4 mph 26.5 mph N/A   Overcast
10:15 PM 57.2 °F - 33.8 °F 41% 29.66 in 10.0 mi SSE 18.4 mph 24.2 mph N/A   Overcast
10:16 PM 57.2 °F - 33.8 °F 41% 29.66 in 10.0 mi SSE 18.4 mph 24.2 mph N/A   Overcast
10:35 PM 57.2 °F - 33.8 °F 41% 29.67 in 10.0 mi SSE 15.0 mph 21.9 mph N/A   Overcast
10:36 PM 57.2 °F - 33.8 °F 41% 29.67 in 10.0 mi SSE 13.8 mph 21.9 mph N/A   Overcast
10:59 PM 57.2 °F - 33.8 °F 41% 29.69 in 10.0 mi SSE 13.8 mph 18.4 mph N/A   Overcast
11:16 PM 57.2 °F - 33.8 °F 41% 29.69 in 10.0 mi South 15.0 mph 21.9 mph N/A Rain Light Rain
11:36 PM 53.6 °F - 35.6 °F 51% 29.65 in 10.0 mi SSE 13.8 mph - N/A   Overcast
11:55 PM 55.4 °F - 33.8 °F 44% 29.65 in 10.0 mi South 15.0 mph 21.9 mph N/A   Overcast
11:56 PM 55.4 °F - 33.8 °F 44% 29.65 in 10.0 mi South 13.8 mph 21.9 mph N/A   Overcast